createdAt,value
2018-05-10T00:02:00.626Z,31.27
2018-05-10T00:04:28.894Z,28.38
2018-05-10T00:06:56.458Z,27.10
2018-05-10T00:09:25.043Z,28.15
2018-05-10T00:11:52.590Z,30.20
2018-05-10T00:14:20.091Z,30.40
2018-05-10T00:16:47.906Z,31.62
2018-05-10T00:19:15.386Z,29.60
2018-05-10T00:21:42.889Z,31.20
2018-05-10T00:24:10.692Z,30.80
2018-05-10T00:26:38.193Z,34.53
2018-05-10T00:29:05.714Z,35.25
2018-05-10T00:31:34.306Z,32.88
2018-05-10T00:34:01.846Z,34.50
2018-05-10T00:36:29.322Z,32.78
2018-05-10T00:38:58.799Z,34.28
2018-05-10T00:41:26.274Z,34.13
2018-05-10T00:43:55.143Z,33.63
2018-05-10T00:46:22.951Z,35.85
2018-05-10T00:48:50.434Z,37.60
2018-05-10T00:51:17.949Z,35.28
2018-05-10T00:53:46.546Z,32.60
2018-05-10T00:56:14.066Z,35.45
2018-05-10T00:58:41.565Z,34.78
2018-05-10T01:01:09.414Z,36.83
2018-05-10T01:03:37.782Z,38.17
2018-05-10T01:06:05.270Z,41.20
2018-05-10T01:08:33.021Z,40.25
2018-05-10T01:11:00.494Z,38.78
2018-05-10T01:13:27.990Z,38.00
2018-05-10T01:15:55.818Z,39.63
2018-05-10T01:18:23.374Z,41.88
2018-05-10T01:20:50.856Z,38.47
2018-05-10T01:23:18.662Z,40.83
2018-05-10T01:25:46.142Z,43.75
2018-05-10T01:28:13.615Z,39.35
2018-05-10T01:30:41.728Z,41.60
2018-05-10T01:33:09.234Z,47.05
2018-05-10T01:35:48.735Z,42.62
2018-05-10T01:38:16.226Z,39.38
2018-05-10T01:40:43.766Z,43.13
2018-05-10T01:43:11.515Z,43.80
2018-05-10T01:45:39.017Z,41.08
2018-05-10T01:48:06.563Z,41.95
2018-05-10T01:50:35.142Z,39.60
2018-05-10T01:53:03.380Z,42.55
2018-05-10T01:55:30.857Z,42.38
2018-05-10T01:57:58.662Z,42.55
2018-05-10T02:00:26.182Z,39.95
2018-05-10T02:02:53.685Z,38.28
2018-05-10T02:05:21.451Z,37.72
2018-05-10T02:07:48.933Z,41.05
2018-05-10T02:10:16.444Z,39.28
2018-05-10T02:12:44.218Z,33.00
2018-05-10T02:15:11.693Z,31.62
2018-05-10T02:17:39.198Z,32.28
2018-05-10T02:20:07.731Z,29.33
2018-05-10T02:22:35.246Z,28.15
2018-05-10T02:25:03.515Z,26.45
2018-05-10T02:27:32.082Z,25.65
2018-05-10T02:29:59.582Z,27.33
2018-05-10T02:32:27.073Z,26.55
2018-05-10T02:34:54.831Z,24.50
2018-05-10T02:37:22.329Z,31.83
2018-05-10T02:39:49.844Z,34.58
2018-05-10T02:42:17.659Z,32.53
2018-05-10T02:44:45.158Z,28.05
2018-05-10T02:47:12.637Z,28.87
2018-05-10T02:49:40.434Z,27.25
2018-05-10T02:52:08.677Z,26.75
2018-05-10T02:54:36.180Z,24.37
2018-05-10T02:57:04.683Z,18.77
2018-05-10T02:59:32.192Z,20.73
2018-05-10T03:01:59.690Z,18.87
2018-05-10T03:04:27.440Z,23.70
2018-05-10T03:06:54.926Z,18.87
2018-05-10T03:09:22.446Z,19.12
2018-05-10T03:11:51.220Z,24.05
2018-05-10T03:14:18.722Z,12.25
2018-05-10T03:16:46.204Z,9.55
2018-05-10T03:19:14.095Z,9.43
2018-05-10T03:21:41.578Z,8.10
2018-05-10T03:24:09.820Z,9.45
2018-05-10T03:26:37.556Z,5.72
2018-05-10T03:29:05.034Z,18.98
2018-05-10T03:31:32.519Z,8.18
2018-05-10T03:34:01.096Z,12.05
2018-05-10T03:36:28.574Z,13.48
2018-05-10T03:38:56.827Z,10.07
2018-05-10T03:41:24.598Z,8.25
2018-05-10T03:43:52.086Z,7.32
2018-05-10T03:46:19.674Z,12.48
2018-05-10T03:48:47.330Z,9.70
2018-05-10T03:51:14.862Z,8.40
2018-05-10T03:53:42.361Z,8.05
2018-05-10T03:56:10.178Z,11.68
2018-05-10T03:58:37.669Z,7.97
2018-05-10T04:01:05.150Z,12.40
2018-05-10T04:03:57.572Z,12.65
2018-05-10T04:06:36.721Z,7.78
2018-05-10T04:09:16.023Z,6.82
2018-05-10T04:11:43.502Z,8.63
2018-05-10T04:14:11.030Z,14.35
2018-05-10T04:16:38.834Z,8.77
2018-05-10T04:19:06.343Z,8.40
2018-05-10T04:21:33.842Z,13.48
2018-05-10T04:24:01.643Z,14.57
2018-05-10T04:26:29.920Z,10.48
2018-05-10T04:28:57.388Z,12.27
2018-05-10T04:31:25.167Z,9.80
2018-05-10T04:33:52.720Z,7.75
2018-05-10T04:36:20.201Z,12.43
2018-05-10T04:38:47.968Z,10.45
2018-05-10T04:41:15.467Z,12.00
2018-05-10T04:43:42.970Z,8.45
2018-05-10T04:46:10.803Z,11.07
2018-05-10T04:48:38.201Z,11.18
2018-05-10T04:51:05.699Z,9.15
2018-05-10T04:53:33.505Z,11.30
2018-05-10T04:56:00.999Z,11.65
2018-05-10T04:58:28.504Z,12.52
2018-05-10T05:00:57.030Z,13.43
2018-05-10T05:03:24.582Z,9.13
2018-05-10T05:05:52.003Z,13.82
2018-05-10T05:08:19.750Z,7.65
2018-05-10T05:10:48.023Z,12.27
2018-05-10T05:13:15.510Z,15.07
2018-05-10T05:15:43.278Z,10.65
2018-05-10T05:18:10.756Z,7.65
2018-05-10T05:20:38.241Z,10.35
2018-05-10T05:23:06.779Z,12.35
2018-05-10T05:25:34.280Z,12.23
2018-05-10T05:28:01.756Z,10.40
2018-05-10T05:30:30.349Z,13.02
2018-05-10T05:32:58.624Z,9.85
2018-05-10T05:35:26.889Z,17.62
2018-05-10T05:37:54.702Z,16.12
2018-05-10T05:40:22.176Z,18.30
2018-05-10T05:42:49.649Z,14.75
2018-05-10T05:45:17.418Z,11.05
2018-05-10T05:47:44.893Z,17.37
2018-05-10T05:50:13.144Z,19.60
2018-05-10T05:52:40.921Z,19.20
2018-05-10T05:55:08.637Z,23.95
2018-05-10T05:57:35.999Z,17.15
2018-05-10T06:00:03.760Z,24.25
2018-05-10T06:02:31.256Z,16.00
2018-05-10T06:04:59.538Z,16.90
2018-05-10T06:07:27.048Z,19.12
2018-05-10T06:09:54.530Z,17.98
2018-05-10T06:12:22.021Z,19.98
2018-05-10T06:14:50.528Z,22.17
2018-05-10T06:17:18.014Z,20.12
2018-05-10T06:19:45.540Z,25.10
2018-05-10T06:22:13.330Z,22.58
2018-05-10T06:24:40.876Z,25.17
2018-05-10T06:27:08.367Z,19.77
2018-05-10T06:29:35.862Z,30.08
2018-05-10T06:32:03.389Z,22.62
2018-05-10T06:34:30.885Z,25.98
2018-05-10T06:36:58.378Z,21.42
2018-05-10T06:39:25.855Z,24.48
2018-05-10T06:41:53.355Z,27.87
2018-05-10T06:44:21.119Z,26.90
2018-05-10T06:46:48.670Z,31.58
2018-05-10T06:49:16.114Z,34.47
2018-05-10T06:51:44.641Z,37.08
2018-05-10T06:54:12.123Z,35.95
2018-05-10T06:56:39.614Z,32.45
2018-05-10T06:59:08.194Z,30.40
2018-05-10T07:01:36.492Z,33.95
2018-05-10T07:04:03.993Z,32.00
2018-05-10T07:06:31.812Z,35.67
2018-05-10T07:08:59.295Z,33.78
2018-05-10T07:11:26.801Z,36.30
2018-05-10T07:13:55.366Z,37.35
2018-05-10T07:16:22.864Z,37.63
2018-05-10T07:18:50.615Z,37.42
2018-05-10T07:21:19.121Z,35.58
2018-05-10T07:23:46.627Z,38.95
2018-05-10T07:26:14.137Z,39.25
2018-05-10T07:28:42.023Z,34.65
2018-05-10T07:31:09.567Z,37.08
2018-05-10T07:33:37.074Z,33.17
2018-05-10T07:36:04.843Z,30.98
2018-05-10T07:38:32.352Z,34.72
2018-05-10T07:40:59.853Z,40.15
2018-05-10T07:43:27.630Z,35.50
2018-05-10T07:45:55.110Z,32.20
2018-05-10T07:48:22.594Z,40.08
2018-05-10T07:50:50.375Z,42.72
2018-05-10T07:53:17.949Z,38.92
2018-05-10T07:55:45.390Z,40.40
2018-05-10T07:58:13.170Z,38.42
2018-05-10T08:00:40.664Z,37.80
2018-05-10T08:03:08.179Z,32.70
2018-05-10T08:05:35.991Z,36.53
2018-05-10T08:08:03.514Z,34.55
2018-05-10T08:10:31.044Z,28.87
2018-05-10T08:12:58.834Z,31.77
2018-05-10T08:15:27.766Z,33.03
2018-05-10T08:17:55.529Z,40.38
2018-05-10T08:20:23.058Z,35.33
2018-05-10T08:22:51.372Z,39.70
2018-05-10T08:25:19.009Z,31.12
2018-05-10T08:27:47.299Z,44.85
2018-05-10T08:30:14.858Z,38.92
2018-05-10T08:32:43.101Z,41.90
2018-05-10T08:35:10.620Z,39.10
2018-05-10T08:37:38.124Z,42.85
2018-05-10T08:40:06.404Z,37.43
2018-05-10T08:42:34.985Z,36.20
2018-05-10T08:45:02.495Z,32.95
2018-05-10T08:47:29.999Z,36.13
2018-05-10T08:49:57.563Z,37.00
2018-05-10T08:52:25.179Z,40.20
2018-05-10T08:54:52.695Z,30.60
2018-05-10T08:57:20.960Z,35.10
2018-05-10T08:59:49.226Z,21.53
2018-05-10T09:02:16.699Z,27.30
2018-05-10T09:04:44.601Z,22.27
2018-05-10T09:07:12.125Z,16.77
2018-05-10T09:09:40.394Z,17.93
2018-05-10T09:12:08.942Z,17.13
2018-05-10T09:14:36.459Z,19.27
2018-05-10T09:17:04.030Z,20.53
2018-05-10T09:19:31.598Z,20.07
2018-05-10T09:21:59.103Z,26.77
2018-05-10T09:24:27.399Z,18.13
2018-05-10T09:26:54.901Z,28.60
2018-05-10T09:29:22.411Z,33.47
2018-05-10T09:31:49.910Z,35.13
2018-05-10T09:34:17.414Z,38.53
2018-05-10T09:36:45.665Z,32.08
2018-05-10T09:39:13.218Z,27.40
2018-05-10T09:41:41.443Z,25.17
2018-05-10T09:44:08.930Z,26.57
2018-05-10T09:46:36.418Z,20.00
2018-05-10T09:49:03.951Z,15.47
2018-05-10T09:51:31.552Z,15.17
2018-05-10T09:53:59.816Z,16.53
2018-05-10T09:56:27.310Z,13.90
2018-05-10T09:58:54.817Z,12.40
2018-05-10T10:01:22.374Z,12.73
2018-05-10T10:03:49.870Z,12.27
2018-05-10T10:06:18.199Z,16.03
2018-05-10T10:08:45.610Z,8.77
2018-05-10T10:11:13.160Z,10.20
2018-05-10T10:13:41.410Z,10.10
2018-05-10T10:16:08.902Z,7.83
2018-05-10T10:18:36.738Z,10.73
2018-05-10T10:21:04.221Z,9.20
2018-05-10T10:23:32.458Z,9.53
2018-05-10T10:26:00.258Z,9.10
2018-05-10T10:28:28.531Z,9.90
2018-05-10T10:30:56.801Z,10.00
2018-05-10T10:33:24.747Z,8.33
2018-05-10T10:35:52.236Z,6.90
2018-05-10T10:38:19.789Z,9.43
2018-05-10T10:40:47.269Z,8.73
2018-05-10T10:43:14.768Z,8.13
2018-05-10T10:45:42.284Z,8.07
2018-05-10T10:48:10.033Z,8.47
2018-05-10T10:50:40.696Z,7.10
2018-05-10T10:53:15.729Z,7.40
2018-05-10T10:55:44.272Z,6.00
2018-05-10T10:58:12.193Z,8.13
2018-05-10T11:00:40.807Z,5.93
2018-05-10T11:03:08.941Z,6.70
2018-05-10T11:05:36.461Z,11.23
2018-05-10T11:08:04.625Z,5.07
2018-05-10T11:10:32.187Z,13.63
2018-05-10T11:13:00.457Z,7.40
2018-05-10T11:15:29.031Z,7.20
2018-05-10T11:17:56.518Z,11.50
2018-05-10T11:20:24.002Z,7.57
2018-05-10T11:22:51.779Z,12.23
2018-05-10T11:25:19.262Z,9.60
2018-05-10T11:27:46.819Z,12.10
2018-05-10T11:30:14.359Z,7.40
2018-05-10T11:32:42.209Z,10.73
2018-05-10T11:35:09.713Z,9.80
2018-05-10T11:37:37.596Z,6.60
2018-05-10T11:40:05.121Z,13.40
2018-05-10T11:42:32.612Z,12.93
2018-05-10T11:45:00.426Z,7.30
2018-05-10T11:47:27.921Z,5.57
2018-05-10T11:49:55.444Z,8.70
2018-05-10T11:52:22.923Z,8.93
2018-05-10T11:54:50.406Z,6.70
2018-05-10T11:57:17.919Z,10.80
2018-05-10T11:59:45.426Z,8.70
2018-05-10T12:02:12.900Z,6.90
2018-05-10T12:04:40.418Z,5.93
2018-05-10T12:07:07.942Z,6.30
2018-05-10T12:09:35.744Z,5.90
2018-05-10T12:12:04.030Z,10.50
2018-05-10T12:14:32.294Z,7.73
2018-05-10T12:16:59.824Z,7.80
2018-05-10T12:19:27.320Z,5.03
2018-05-10T12:21:54.880Z,6.70
2018-05-10T12:24:22.356Z,5.83
2018-05-10T12:26:50.003Z,4.73
2018-05-10T12:29:17.499Z,4.60
2018-05-10T12:31:45.071Z,4.93
2018-05-10T12:34:12.738Z,4.70
2018-05-10T12:36:40.230Z,5.70
2018-05-10T12:39:08.533Z,4.03
2018-05-10T12:41:36.249Z,5.10
2018-05-10T12:44:05.607Z,5.77
2018-05-10T12:46:33.593Z,5.20
2018-05-10T12:49:01.895Z,8.03
2018-05-10T12:51:29.506Z,3.50
2018-05-10T12:53:57.088Z,2.50
2018-05-10T12:56:24.693Z,2.63
2018-05-10T12:58:52.171Z,2.70
2018-05-10T13:01:19.790Z,2.10
2018-05-10T13:03:47.260Z,3.03
2018-05-10T13:06:15.068Z,2.53
2018-05-10T13:08:42.575Z,2.70
2018-05-10T13:11:10.808Z,3.50
2018-05-10T13:13:38.631Z,4.83
2018-05-10T13:16:06.239Z,3.70
2018-05-10T13:18:34.407Z,2.30
2018-05-10T13:21:02.246Z,3.60
2018-05-10T13:23:29.734Z,3.83
2018-05-10T13:25:57.231Z,2.20
2018-05-10T13:28:25.030Z,3.50
2018-05-10T13:30:52.581Z,2.50
2018-05-10T13:33:20.062Z,2.20
2018-05-10T13:35:47.818Z,2.50
2018-05-10T13:38:15.348Z,4.70
2018-05-10T13:40:42.786Z,6.43
2018-05-10T13:43:10.293Z,2.83
2018-05-10T13:45:37.810Z,2.00
2018-05-10T13:48:05.942Z,7.03
2018-05-10T13:50:33.709Z,9.20
2018-05-10T13:53:01.272Z,4.73
2018-05-10T13:55:28.697Z,5.00
2018-05-10T13:57:56.466Z,4.23
2018-05-10T14:00:23.971Z,4.80
2018-05-10T14:02:52.250Z,4.83
2018-05-10T14:05:20.776Z,4.30
2018-05-10T14:07:48.277Z,5.77
2018-05-10T14:10:15.755Z,4.83
2018-05-10T14:12:43.353Z,3.20
2018-05-10T14:15:10.771Z,3.37
2018-05-10T14:17:39.014Z,5.47
2018-05-10T14:20:06.503Z,4.63
2018-05-10T14:22:34.757Z,4.60
2018-05-10T14:25:02.247Z,5.20
2018-05-10T14:27:30.036Z,4.93
2018-05-10T14:29:57.515Z,8.13
2018-05-10T14:32:25.174Z,10.07
2018-05-10T14:34:52.637Z,5.03
2018-05-10T14:37:20.172Z,7.30
2018-05-10T14:39:47.671Z,8.20
2018-05-10T14:42:15.175Z,18.80
2018-05-10T14:44:42.662Z,10.20
2018-05-10T14:47:10.168Z,7.00
2018-05-10T14:49:37.663Z,12.83
2018-05-10T14:52:05.177Z,11.20
2018-05-10T14:54:33.423Z,11.40
2018-05-10T14:57:01.229Z,6.53
2018-05-10T14:59:28.706Z,8.03
2018-05-10T15:01:56.190Z,6.57
2018-05-10T15:04:23.994Z,10.47
2018-05-10T15:06:52.235Z,10.90
2018-05-10T15:09:19.711Z,9.40
2018-05-10T15:11:47.972Z,15.97
2018-05-10T15:14:15.442Z,13.20
2018-05-10T15:16:43.695Z,14.87
2018-05-10T15:19:11.266Z,17.63
2018-05-10T15:21:38.834Z,11.70
2018-05-10T15:24:07.137Z,11.00
2018-05-10T15:26:34.926Z,12.10
2018-05-10T15:29:02.434Z,16.07
2018-05-10T15:31:29.922Z,18.50
2018-05-10T15:33:57.458Z,12.13
2018-05-10T15:36:25.737Z,11.40
2018-05-10T15:38:53.990Z,8.97
2018-05-10T15:41:22.567Z,13.40
2018-05-10T15:43:50.046Z,11.20
2018-05-10T15:46:18.305Z,13.07
2018-05-10T15:48:45.802Z,10.60
2018-05-10T15:51:13.352Z,12.10
2018-05-10T15:53:40.848Z,12.33
2018-05-10T15:56:08.348Z,12.87
2018-05-10T15:58:36.602Z,11.50
2018-05-10T16:01:04.205Z,9.13
2018-05-10T16:03:31.722Z,7.93
2018-05-10T16:05:59.216Z,7.53
2018-05-10T16:08:26.717Z,8.27
2018-05-10T16:10:54.215Z,10.30
2018-05-10T16:13:22.893Z,10.10
2018-05-10T16:15:50.636Z,5.60
2018-05-10T16:18:19.220Z,6.70
2018-05-10T16:20:46.985Z,7.53
2018-05-10T16:23:14.466Z,8.90
2018-05-10T16:25:41.982Z,8.57
2018-05-10T16:28:09.476Z,9.67
2018-05-10T16:30:37.764Z,6.60
2018-05-10T16:33:05.243Z,6.40
2018-05-10T16:35:32.755Z,5.40
2018-05-10T16:38:00.393Z,7.13
2018-05-10T16:40:28.242Z,8.57
2018-05-10T16:42:55.739Z,7.50
2018-05-10T16:45:23.238Z,5.60
2018-05-10T16:47:51.047Z,7.47
2018-05-10T16:50:18.529Z,6.32
2018-05-10T16:52:46.032Z,10.00
2018-05-10T16:55:13.583Z,6.35
2018-05-10T16:57:41.062Z,6.65
2018-05-10T17:00:08.558Z,8.77
2018-05-10T17:02:36.087Z,5.03
2018-05-10T17:05:03.690Z,8.27
2018-05-10T17:07:31.970Z,6.22
2018-05-10T17:09:59.815Z,10.00
2018-05-10T17:12:28.113Z,10.25
2018-05-10T17:14:56.355Z,5.37
2018-05-10T17:17:23.863Z,7.85
2018-05-10T17:19:51.341Z,4.62
2018-05-10T17:22:18.823Z,9.45
2018-05-10T17:24:46.318Z,7.05
2018-05-10T17:27:13.930Z,15.80
2018-05-10T17:29:41.422Z,12.18
2018-05-10T17:32:09.706Z,9.20
2018-05-10T17:34:37.956Z,8.80
2018-05-10T17:37:05.443Z,11.27
2018-05-10T17:39:33.802Z,11.65
2018-05-10T17:42:01.968Z,8.15
2018-05-10T17:44:29.466Z,8.65
2018-05-10T17:46:56.962Z,9.32
2018-05-10T17:49:24.564Z,10.15
2018-05-10T17:51:52.007Z,11.35
2018-05-10T17:54:20.552Z,6.40
2018-05-10T17:56:48.049Z,7.68
2018-05-10T17:59:16.294Z,6.72
2018-05-10T18:01:44.075Z,8.85
2018-05-10T18:04:11.613Z,10.57
2018-05-10T18:06:39.175Z,10.30
2018-05-10T18:09:07.011Z,10.52
2018-05-10T18:11:34.614Z,9.75
2018-05-10T18:14:02.164Z,11.38
2018-05-10T18:16:29.953Z,11.90
2018-05-10T18:18:58.210Z,10.10
2018-05-10T18:21:25.687Z,8.57
2018-05-10T18:23:54.561Z,9.60
2018-05-10T18:26:22.066Z,6.95
2018-05-10T18:28:49.604Z,10.38
2018-05-10T18:31:18.185Z,9.35
2018-05-10T18:33:46.434Z,8.52
2018-05-10T18:36:13.941Z,10.98
2018-05-10T18:38:41.706Z,6.90
2018-05-10T18:41:09.370Z,6.85
2018-05-10T18:43:37.030Z,10.27
2018-05-10T18:46:04.817Z,10.23
2018-05-10T18:53:56.521Z,7.93
2018-05-10T18:56:24.024Z,8.77
2018-05-10T18:58:51.536Z,9.57
2018-05-10T19:01:19.786Z,9.43
2018-05-10T19:03:47.575Z,11.32
2018-05-10T19:06:15.839Z,7.40
2018-05-10T19:08:43.355Z,9.07
2018-05-10T19:11:11.144Z,12.35
2018-05-10T19:13:38.662Z,11.32
2018-05-10T19:16:06.135Z,9.45
2018-05-10T19:18:33.887Z,11.23
2018-05-10T19:21:01.378Z,12.45
2018-05-10T19:23:28.896Z,8.82
2018-05-10T19:25:56.390Z,10.20
2018-05-10T19:28:23.898Z,7.82
2018-05-10T19:30:51.388Z,9.20
2018-05-10T19:33:19.490Z,10.65
2018-05-10T19:35:47.012Z,12.32
2018-05-10T19:38:14.490Z,7.45
2018-05-10T19:40:42.344Z,9.25
2018-05-10T19:43:10.146Z,6.20
2018-05-10T19:45:37.630Z,9.70
2018-05-10T19:48:05.154Z,11.07
2018-05-10T19:50:32.651Z,13.43
2018-05-10T19:53:00.146Z,9.35
2018-05-10T19:55:28.456Z,11.12
2018-05-10T19:57:56.722Z,11.40
2018-05-10T20:00:25.003Z,15.38
2018-05-10T20:02:52.871Z,11.85
2018-05-10T20:05:20.435Z,10.60
2018-05-10T20:07:48.715Z,16.12
2018-05-10T20:10:17.258Z,17.80
2018-05-10T20:12:44.748Z,12.95
2018-05-10T20:15:12.999Z,15.48
2018-05-10T20:17:40.512Z,13.18
2018-05-10T20:20:08.091Z,16.77
2018-05-10T20:22:35.595Z,14.77
2018-05-10T20:25:03.394Z,11.48
2018-05-10T20:27:30.929Z,12.63
2018-05-10T20:29:59.217Z,11.95
2018-05-10T20:32:27.545Z,9.38
2018-05-10T20:34:55.739Z,11.82
2018-05-10T20:37:23.232Z,17.98
2018-05-10T20:39:51.183Z,13.30
2018-05-10T20:42:18.698Z,17.48
2018-05-10T20:44:46.179Z,14.63
2018-05-10T20:47:14.971Z,14.13
2018-05-10T20:49:42.464Z,16.58
2018-05-10T20:52:10.018Z,15.73
2018-05-10T20:54:37.582Z,10.35
2018-05-10T20:57:05.102Z,13.35
2018-05-10T20:59:33.377Z,15.95
2018-05-10T21:02:01.169Z,15.82
2018-05-10T21:04:29.403Z,14.13
2018-05-10T21:06:56.894Z,13.62
2018-05-10T21:09:24.646Z,16.35
2018-05-10T21:11:52.156Z,14.73
2018-05-10T21:14:19.668Z,13.40
2018-05-10T21:16:48.237Z,14.05
2018-05-10T21:19:15.720Z,13.10
2018-05-10T21:21:43.292Z,12.07
2018-05-10T21:24:11.085Z,15.57
2018-05-10T21:26:38.577Z,11.07
2018-05-10T21:29:06.155Z,14.43
2018-05-10T21:31:34.979Z,11.65
2018-05-10T21:34:02.584Z,14.40
2018-05-10T21:36:30.748Z,14.25
2018-05-10T21:38:58.519Z,17.05
2018-05-10T21:41:26.011Z,14.90
2018-05-10T21:43:53.486Z,15.63
2018-05-10T21:46:21.278Z,15.88
2018-05-10T21:48:48.806Z,16.77
2018-05-10T21:51:16.346Z,16.73
2018-05-10T21:53:44.114Z,13.57
2018-05-10T21:56:11.600Z,11.57
2018-05-10T21:58:39.079Z,19.55
2018-05-10T22:01:06.895Z,16.92
2018-05-10T22:03:34.374Z,16.27
2018-05-10T22:06:01.875Z,15.23
2018-05-10T22:08:29.615Z,18.40
2018-05-10T22:10:57.100Z,16.60
2018-05-10T22:13:25.368Z,18.00
2018-05-10T22:15:53.139Z,18.05
2018-05-10T22:18:21.386Z,13.48
2018-05-10T22:20:48.904Z,19.33
2018-05-10T22:23:16.642Z,18.58
2018-05-10T22:25:44.173Z,21.95
2018-05-10T22:28:11.730Z,18.37
2018-05-10T22:30:41.113Z,16.35
2018-05-10T22:33:08.577Z,19.08
2018-05-10T22:35:36.150Z,20.35
2018-05-10T22:38:03.915Z,18.35
2018-05-10T22:40:31.382Z,13.55
2018-05-10T22:42:58.903Z,15.30
2018-05-10T22:45:26.402Z,21.25
2018-05-10T22:47:54.760Z,18.83
2018-05-10T22:50:22.238Z,16.65
2018-05-10T22:52:50.044Z,22.08
2018-05-10T22:55:17.558Z,19.20
2018-05-10T22:57:45.049Z,16.90
2018-05-10T23:00:12.833Z,13.80
2018-05-10T23:02:40.297Z,15.00
2018-05-10T23:05:07.772Z,16.65
2018-05-10T23:07:35.562Z,17.80
2018-05-10T23:10:03.834Z,18.17
2018-05-10T23:12:32.114Z,14.27
2018-05-10T23:15:00.696Z,15.00
2018-05-10T23:17:28.960Z,16.87
2018-05-10T23:19:56.459Z,16.62
2018-05-10T23:22:23.979Z,22.73
2018-05-10T23:24:51.471Z,22.40
2018-05-10T23:27:18.999Z,22.60
2018-05-10T23:29:46.796Z,26.45
2018-05-10T23:32:14.302Z,26.83
2018-05-10T23:34:41.794Z,25.00
2018-05-10T23:37:09.599Z,20.60
2018-05-10T23:39:37.095Z,18.42
2018-05-10T23:42:04.587Z,25.33
2018-05-10T23:44:32.373Z,19.70
2018-05-10T23:46:59.879Z,21.65
2018-05-10T23:49:28.192Z,18.15
2018-05-10T23:51:55.996Z,23.62
2018-05-10T23:54:23.560Z,26.75
2018-05-10T23:56:51.159Z,19.87
2018-05-10T23:59:19.030Z,17.58
